• Join FlightAware (Why Join?)
  • Login
  • US Flag 
07:41AM EDT


 

Airport Tracker/Info


-or-


 

Live Flight TrackerFlight Track Log ✈ SWA862 ✈ 09-Apr-2013 ✈ KRDU - KBWI

Flight Track Log - Related Links

Times and Time Zones

All times are in EDT time to prevent confusion due to time zone crossing. See the SWA862 flight status page for this flight to view local times or setup timezone preferences in your user account.

Time Position Orientation Groundspeed Altitude Reporting Facility
EDT Latitude Longitude Course Direction KTS MPH feet Rate Location/Type
08:24PM 35.8542 -78.8878 266° West 214 246 8,500  Level Washington Center
08:25PM 35.9197 -78.8544 22° Northeast 169 194 11,000 2,220 Climbing Washington Center
08:26PM 35.9908 -78.7675 45° Northeast 245 282 13,000 2,820 Climbing Washington Center
08:27PM 36.0681 -78.6883 40° Northeast 306 352 16,700 3,720 Climbing Washington Center
08:28PM 36.1456 -78.5989 43° Northeast 345 397 20,500 3,120 Climbing Washington Center
08:29PM 36.2228 -78.5117 42° Northeast 358 412 23,000 1,200 Climbing Washington Center
08:30PM 36.3128 -78.4144 41° Northeast 391 450 23,000  Level Washington Center
08:31PM 36.4006 -78.3144 43° Northeast 417 480 23,000  Level Washington Center
08:32PM 36.4903 -78.2169 41° Northeast 422 486 23,000  Level Washington Center
08:33PM 36.5736 -78.1344 38° Northeast 422 486 23,000  Level Washington Center
08:34PM 36.6692 -78.0467 36° Northeast 422 486 23,000  Level Washington Center
08:35PM 36.7628 -77.9589 37° Northeast 422 486 23,000  Level Washington Center
08:36PM 36.8606 -77.8711 36° Northeast 422 486 23,000  Level Washington Center
08:37PM 36.9581 -77.7856 35° Northeast 422 486 23,000  Level Washington Center
08:38PM 37.0556 -77.7025 34° Northeast 422 486 23,000  Level Washington Center
08:39PM 37.1508 -77.6217 34° Northeast 422 486 23,000  Level Washington Center
08:40PM 37.2439 -77.5433 34° Northeast 409 471 23,000  Level Washington Center
08:41PM 37.3428 -77.4911 23° Northeast 397 457 23,000  Level Washington Center
08:42PM 37.4497 -77.4544 15° North 390 449 23,000  Level Washington Center
08:43PM 37.5567 -77.4178 15° North 390 449 23,000  Level Washington Center
08:44PM 37.6614 -77.3808 16° North 390 449 23,000  Level Washington Center
08:45PM 37.7683 -77.3467 14° North 390 449 23,000  Level Washington Center
08:46PM 37.8753 -77.3097 15° North 395 455 23,000  Level Washington Center
08:47PM 37.9822 -77.2753 14° North 395 455 23,000 -600 Level Washington Center
08:48PM 38.0869 -77.2381 16° North 395 455 21,800 -1,740 Descending Washington Center
08:49PM 38.1875 -77.2033 15° North 389 448 19,600 -2,400 Descending Washington Center
08:50PM 38.2881 -77.1683 15° North 376 433 17,000 -2,340 Descending Washington Center
08:51PM 38.3864 -77.1306 17° North 376 433 15,000 -1,680 Descending Washington Center
08:52PM 38.4542 -77.0525 42° Northeast 350 403 13,700 -1,500 Descending Washington Center
08:53PM 38.5408 -76.9481 43° Northeast 355 409 12,000 -1,620 Descending Washington Center
08:54PM 38.6064 -76.8669 44° Northeast 328 377 10,500 -1,140 Descending Washington Center
08:55PM 38.6675 -76.7936 43° Northeast 316 364 9,800 -840 Descending Washington Center
08:56PM 38.7206 -76.7144 49° Northeast 295 339 8,900 -1,200 Descending Washington Center
08:57PM 38.7589 -76.6272 61° Northeast 282 325 7,400 -1,500 Descending Washington Center
08:57PM 38.7667 -76.6000 70° East 294 338 7,000 -1,080 Descending Potomac TRACON
08:58PM 38.8333 -76.5333 38° Northeast 292 336 6,000 -1,020 Descending Potomac TRACON
08:59PM 38.9000 -76.5667 339° North 264 304 5,000 -600 Descending Potomac TRACON
09:00PM 38.9667 -76.5833 349° North 247 284 4,800 -540 Descending Potomac TRACON
09:01PM 39.0000 -76.6500 303° West 221 254 4,000 -420 Descending Potomac TRACON
09:02PM 39.0333 -76.7167 303° West 219 252 4,000 -60 Level Potomac TRACON
09:03PM 39.0667 -76.7833 303° West 220 253 3,900 -540 Descending Potomac TRACON
09:04PM 39.0833 -76.8500 288° West 217 250 3,000 -600 Descending Potomac TRACON
09:05PM 39.1167 -76.9167 303° West 205 236 2,700 -480 Descending Potomac TRACON
09:06PM 39.1667 -76.9333 346° North 220 253 2,000 -360 Descending Potomac TRACON
09:07PM 39.1833 -76.8667 72° East 197 227 2,000 -180 Level Potomac TRACON
09:08PM 39.1833 -76.8000 90° East 189 217 1,700 -600 Descending Potomac TRACON
09:09PM 39.1833 -76.7333 90° East 143 165 900 -780 Descending Potomac TRACON
09:11PM 39.1667 -76.6667 90° East  Level FlightAware Approximate